Time;durP1;ratioP1;P1;durP2;ratioP2;P2;SDS_P1;SDS_P2;PMS_P1;PMS_P2;Temp;Humidity;BMP_temperature;BMP_pressure;BME280_temperature;BME280_humidity;BME280_pressure;Samples;Min_cycle;Max_cycle;Signal;HPM_P1;HPM_P2
2023/03/03 00:00:28;;;;;;;24.27;21.57;;;;;;;1.10;100.00;100622.66;5048657;28;20183;-73
2023/03/03 00:02:58;;;;;;;25.43;21.90;;;;;;;1.11;100.00;100619.28;5043344;28;20197;-73
2023/03/03 00:05:24;;;;;;;25.70;21.77;;;;;;;1.13;100.00;100619.34;5042361;28;20748;-73
2023/03/03 00:07:49;;;;;;;24.07;21.47;;;;;;;1.16;100.00;100616.91;5046610;28;20218;-73
2023/03/03 00:10:14;;;;;;;23.87;21.33;;;;;;;1.16;100.00;100620.31;5043074;28;20191;-73
2023/03/03 00:12:47;;;;;;;26.93;23.37;;;;;;;1.17;100.00;100611.84;5046479;28;20427;-74
2023/03/03 00:15:17;;;;;;;25.63;21.10;;;;;;;1.17;100.00;100608.44;5040554;28;20228;-73
2023/03/03 00:17:42;;;;;;;26.00;21.70;;;;;;;1.17;100.00;100616.94;5042943;28;20293;-74
2023/03/03 00:20:37;;;;;;;25.93;22.67;;;;;;;1.18;100.00;100618.69;5050533;28;20265;-73
2023/03/03 00:23:34;;;;;;;27.00;23.10;;;;;;;1.15;100.00;100617.72;5043875;28;20734;-73
2023/03/03 00:26:00;;;;;;;26.13;22.27;;;;;;;1.10;100.00;100617.56;5043855;28;20717;-73
2023/03/03 00:28:29;;;;;;;25.90;22.47;;;;;;;1.05;100.00;100619.94;5041523;28;20215;-73
2023/03/03 00:30:57;;;;;;;24.17;21.57;;;;;;;1.00;100.00;100618.03;5041118;28;20190;-72
2023/03/03 00:33:35;;;;;;;26.73;22.13;;;;;;;0.95;100.00;100620.41;5042367;28;20237;-73
2023/03/03 00:36:15;;;;;;;25.03;21.73;;;;;;;0.88;100.00;100621.03;5046137;28;20608;-73
2023/03/03 00:38:42;;;;;;;27.57;22.77;;;;;;;0.84;100.00;100621.72;5043138;28;20210;-73
2023/03/03 00:41:21;;;;;;;26.53;21.67;;;;;;;0.79;100.00;100620.69;5058733;28;20191;-73
2023/03/03 00:43:46;;;;;;;25.17;22.13;;;;;;;0.76;100.00;100618.91;5042767;28;20213;-73
2023/03/03 00:46:17;;;;;;;26.10;22.10;;;;;;;0.74;100.00;100634.13;5044817;28;20738;-73
2023/03/03 00:48:43;;;;;;;24.33;21.07;;;;;;;0.75;100.00;100627.34;5035631;28;20219;-73
2023/03/03 00:51:25;;;;;;;25.03;21.97;;;;;;;0.80;100.00;100623.31;5041967;28;20197;-73
2023/03/03 00:53:51;;;;;;;26.20;22.27;;;;;;;0.85;100.00;100626.84;5039105;28;20624;-73
2023/03/03 00:56:16;;;;;;;23.60;20.97;;;;;;;0.91;100.00;100626.22;5043899;28;20186;-73
2023/03/03 00:58:43;;;;;;;25.50;21.77;;;;;;;0.96;100.00;100629.81;5040617;28;20218;-73
2023/03/03 01:01:08;;;;;;;22.83;20.10;;;;;;;1.00;100.00;100625.66;5042436;28;20212;-73
2023/03/03 01:03:34;;;;;;;24.17;21.17;;;;;;;1.02;100.00;100617.28;5045457;28;20177;-73
2023/03/03 01:05:59;;;;;;;26.73;21.30;;;;;;;1.05;100.00;100631.81;5041448;28;20590;-73
2023/03/03 01:08:24;;;;;;;25.10;21.80;;;;;;;1.04;100.00;100628.41;5044007;28;20217;-73
2023/03/03 01:10:52;;;;;;;24.20;20.87;;;;;;;1.03;100.00;100623.25;5042290;28;20198;-73
2023/03/03 01:13:22;;;;;;;26.53;21.97;;;;;;;1.00;100.00;100615.47;5046175;28;20252;-73
2023/03/03 01:15:48;;;;;;;22.90;19.50;;;;;;;0.95;100.00;100617.03;5045867;28;20214;-73
2023/03/03 01:18:14;;;;;;;23.90;21.20;;;;;;;0.91;100.00;100616.00;5047890;28;20264;-73
2023/03/03 01:20:39;;;;;;;23.93;21.20;;;;;;;0.86;100.00;100617.56;5043719;28;20293;-73
2023/03/03 01:23:05;;;;;;;24.43;21.43;;;;;;;0.81;100.00;100606.31;5047056;28;20182;-73
2023/03/03 01:25:31;;;;;;;25.40;22.60;;;;;;;0.73;100.00;100606.94;5044490;28;20278;-73
2023/03/03 01:27:57;;;;;;;25.13;21.83;;;;;;;0.67;100.00;100608.38;5044198;28;20268;-73
2023/03/03 01:30:22;;;;;;;26.00;21.60;;;;;;;0.60;100.00;100615.78;5045323;28;20194;-73
2023/03/03 01:32:48;;;;;;;26.37;21.70;;;;;;;0.55;100.00;100613.88;5045693;28;20186;-73
2023/03/03 01:35:14;;;;;;;25.63;20.97;;;;;;;0.49;100.00;100619.63;5042837;28;20277;-74
2023/03/03 01:37:39;;;;;;;25.60;22.50;;;;;;;0.44;100.00;100616.03;5045344;28;20736;-73
2023/03/03 01:40:07;;;;;;;27.03;22.87;;;;;;;0.39;100.00;100615.84;5047379;28;20200;-73
2023/03/03 01:42:32;;;;;;;25.50;21.73;;;;;;;0.34;100.00;100613.97;5043914;28;20819;-73
2023/03/03 01:45:20;;;;;;;23.67;20.67;;;;;;;0.26;100.00;100611.13;5043872;28;20286;-73
2023/03/03 01:47:59;;;;;;;25.00;20.70;;;;;;;0.21;100.00;100613.50;5047269;28;20259;-73
2023/03/03 01:50:44;;;;;;;26.17;22.07;;;;;;;0.15;100.00;100615.78;5046691;28;20212;-73
2023/03/03 01:53:22;;;;;;;25.30;20.93;;;;;;;0.10;100.00;100607.97;5044672;28;20221;-73
2023/03/03 01:55:50;;;;;;;23.93;20.87;;;;;;;0.06;100.00;100607.81;5049702;28;20215;-73
2023/03/03 01:58:22;;;;;;;26.27;22.47;;;;;;;0.03;100.00;100606.00;5038841;28;20266;-73
2023/03/03 02:00:56;;;;;;;26.37;21.40;;;;;;;0.02;100.00;100605.94;5045464;28;20328;-73
2023/03/03 02:03:23;;;;;;;24.77;21.83;;;;;;;-0.02;100.00;100604.97;5042414;28;20203;-73
2023/03/03 02:05:51;;;;;;;24.47;21.27;;;;;;;-0.07;100.00;100597.13;5043368;28;20187;-72
2023/03/03 02:08:20;;;;;;;24.53;21.00;;;;;;;-0.11;100.00;100592.75;5049292;28;20217;-73
2023/03/03 02:10:47;;;;;;;24.80;20.27;;;;;;;-0.17;100.00;100588.28;5040320;28;20190;-75
2023/03/03 02:13:13;;;;;;;24.13;20.40;;;;;;;-0.22;100.00;100588.88;5045633;28;20205;-73
2023/03/03 02:15:39;;;;;;;23.90;21.13;;;;;;;-0.26;100.00;100579.41;5046247;28;20198;-73
2023/03/03 02:18:08;;;;;;;25.03;21.77;;;;;;;-0.31;100.00;100585.19;5046688;28;20848;-73
2023/03/03 02:20:50;;;;;;;25.87;22.30;;;;;;;-0.34;100.00;100591.84;5048858;28;20571;-73
2023/03/03 02:23:29;;;;;;;27.40;24.07;;;;;;;-0.40;100.00;100589.91;5044079;28;20200;-73
2023/03/03 02:25:57;;;;;;;30.73;25.13;;;;;;;-0.45;100.00;100595.63;5053155;28;20193;-73
2023/03/03 02:28:26;;;;;;;30.00;24.57;;;;;;;-0.51;100.00;100603.84;5043332;28;20218;-73
2023/03/03 02:30:57;;;;;;;32.27;24.83;;;;;;;-0.54;100.00;100611.38;5043536;28;20615;-73
2023/03/03 02:33:22;;;;;;;29.00;24.07;;;;;;;-0.58;100.00;100612.03;5046593;28;20199;-72
2023/03/03 02:35:49;;;;;;;27.03;24.07;;;;;;;-0.66;100.00;100604.09;5043810;28;20196;-72
2023/03/03 02:38:42;;;;;;;28.93;23.10;;;;;;;-0.72;100.00;100606.34;5047862;28;20299;-73
2023/03/03 02:41:31;;;;;;;28.53;23.03;;;;;;;-0.77;100.00;100608.72;5045943;28;20205;-73
2023/03/03 02:44:00;;;;;;;32.57;25.53;;;;;;;-0.81;100.00;100610.25;5047522;28;20800;-73
2023/03/03 02:46:33;;;;;;;30.00;23.60;;;;;;;-0.84;100.00;100605.03;5049020;28;20188;-73
2023/03/03 02:48:59;;;;;;;29.97;24.50;;;;;;;-0.88;100.00;100605.72;5050651;28;20462;-73
2023/03/03 02:51:24;;;;;;;33.97;26.80;;;;;;;-0.86;100.00;100606.66;5044923;28;20197;-73
2023/03/03 02:53:49;;;;;;;32.67;26.63;;;;;;;-0.86;100.00;100614.28;5046882;28;20196;-72
2023/03/03 02:56:15;;;;;;;34.27;26.97;;;;;;;-0.89;100.00;100609.06;5064200;28;20181;-73
2023/03/03 02:58:40;;;;;;;31.00;25.43;;;;;;;-0.92;100.00;100612.34;5074360;28;20267;-72
2023/03/03 03:01:05;;;;;;;32.30;25.07;;;;;;;-0.94;100.00;100610.53;5044257;28;20268;-72
2023/03/03 03:03:31;;;;;;;31.90;25.27;;;;;;;-0.99;100.00;100617.09;5047957;28;20268;-72
2023/03/03 03:05:56;;;;;;;30.23;24.13;;;;;;;-1.01;100.00;100626.31;5046889;28;20185;-73
2023/03/03 03:08:22;;;;;;;27.33;23.60;;;;;;;-1.03;100.00;100622.84;5045252;28;20292;-73
2023/03/03 03:10:48;;;;;;;29.33;24.90;;;;;;;-1.04;100.00;100614.34;5041331;28;20685;-72
2023/03/03 03:13:13;;;;;;;31.33;25.37;;;;;;;-1.05;100.00;100614.28;5045289;28;20189;-73
2023/03/03 03:15:38;;;;;;;31.03;24.00;;;;;;;-1.07;100.00;100619.31;5046682;28;21047;-73
2023/03/03 03:18:04;;;;;;;32.00;26.23;;;;;;;-1.08;100.00;100617.56;5051275;28;20229;-73
2023/03/03 03:20:29;;;;;;;32.50;25.63;;;;;;;-1.06;100.00;100615.09;5044363;28;20233;-73
2023/03/03 03:22:54;;;;;;;31.57;26.97;;;;;;;-1.06;100.00;100621.03;5044699;28;20242;-73
2023/03/03 03:25:20;;;;;;;30.07;25.27;;;;;;;-1.07;100.00;100624.38;5044860;28;20305;-73
2023/03/03 03:27:45;;;;;;;30.97;24.30;;;;;;;-1.06;100.00;100626.13;5044418;28;20208;-73
2023/03/03 03:30:11;;;;;;;34.73;25.00;;;;;;;-1.06;100.00;100625.28;5050919;28;20545;-73
2023/03/03 03:32:36;;;;;;;30.37;25.07;;;;;;;-1.06;100.00;100626.13;5043978;28;20209;-73
2023/03/03 03:35:01;;;;;;;30.07;24.77;;;;;;;-1.07;100.00;100637.06;5045752;28;20188;-72
2023/03/03 03:37:27;;;;;;;31.83;24.33;;;;;;;-1.09;100.00;100636.13;5045420;28;20282;-73
2023/03/03 03:39:52;;;;;;;31.13;25.53;;;;;;;-1.08;100.00;100638.78;5046570;28;20238;-73
2023/03/03 03:42:18;;;;;;;31.13;25.37;;;;;;;-1.10;100.00;100632.75;5046259;28;20185;-73
2023/03/03 03:44:43;;;;;;;29.80;24.03;;;;;;;-1.13;100.00;100631.72;5046741;28;20689;-73
2023/03/03 03:47:08;;;;;;;29.73;24.20;;;;;;;-1.17;100.00;100640.88;5049115;28;20208;-74
2023/03/03 03:49:34;;;;;;;31.03;24.27;;;;;;;-1.20;100.00;100638.19;5044355;28;20559;-71
2023/03/03 03:51:59;;;;;;;29.63;23.27;;;;;;;-1.22;100.00;100639.81;5044040;28;20202;-73
2023/03/03 03:54:24;;;;;;;29.73;23.30;;;;;;;-1.21;100.00;100635.59;5043698;28;20250;-73
2023/03/03 03:56:50;;;;;;;28.43;22.47;;;;;;;-1.20;100.00;100638.19;5047876;28;20186;-73
2023/03/03 03:59:15;;;;;;;27.37;23.00;;;;;;;-1.18;100.00;100639.13;5061380;28;20205;-73
2023/03/03 04:01:40;;;;;;;28.17;22.47;;;;;;;-1.19;100.00;100629.78;5039748;28;20256;-73
2023/03/03 04:04:06;;;;;;;30.50;25.50;;;;;;;-1.18;100.00;100628.97;5036020;28;20198;-73
2023/03/03 04:06:31;;;;;;;29.90;24.70;;;;;;;-1.19;100.00;100632.31;5043382;28;20198;-73
2023/03/03 04:08:57;;;;;;;26.63;23.57;;;;;;;-1.25;100.00;100627.84;5050239;28;20241;-72
2023/03/03 04:11:22;;;;;;;28.07;23.20;;;;;;;-1.27;100.00;100636.22;5050259;28;20845;-72
2023/03/03 04:13:47;;;;;;;26.13;22.13;;;;;;;-1.28;100.00;100630.25;5050417;28;20217;-73
2023/03/03 04:16:13;;;;;;;27.93;24.27;;;;;;;-1.24;100.00;100629.59;5042908;28;20219;-73
2023/03/03 04:18:38;;;;;;;28.60;24.27;;;;;;;-1.18;100.00;100633.22;5042028;28;20300;-72
2023/03/03 04:21:04;;;;;;;29.63;24.60;;;;;;;-1.11;100.00;100631.00;5048684;28;20231;-73
2023/03/03 04:23:29;;;;;;;30.37;24.40;;;;;;;-1.04;100.00;100638.88;5043162;28;20177;-72
2023/03/03 04:25:54;;;;;;;31.80;25.03;;;;;;;-1.00;100.00;100634.03;5051125;28;20208;-73
2023/03/03 04:28:21;;;;;;;28.63;23.80;;;;;;;-0.96;100.00;100640.09;5054670;28;20666;-73
2023/03/03 04:30:46;;;;;;;28.40;23.40;;;;;;;-0.92;100.00;100635.22;5049926;28;20588;-73
2023/03/03 04:33:12;;;;;;;30.87;24.23;;;;;;;-0.88;100.00;100637.88;5049966;28;20487;-73
2023/03/03 04:35:37;;;;;;;29.63;24.40;;;;;;;-0.86;100.00;100641.38;5042455;28;21114;-73
2023/03/03 04:38:03;;;;;;;26.83;22.60;;;;;;;-0.84;100.00;100642.31;5049822;28;20198;-72
2023/03/03 04:40:29;;;;;;;29.87;24.43;;;;;;;-0.83;100.00;100655.06;5045214;28;20243;-73
2023/03/03 04:42:54;;;;;;;30.37;23.70;;;;;;;-0.83;100.00;100649.97;5049050;28;20178;-73
2023/03/03 04:45:20;;;;;;;32.03;25.30;;;;;;;-0.83;100.00;100659.28;5043500;28;20231;-73
2023/03/03 04:47:45;;;;;;;32.20;25.97;;;;;;;-0.85;100.00;100649.03;5057372;28;20224;-72
2023/03/03 04:50:11;;;;;;;32.83;25.73;;;;;;;-0.87;100.00;100655.72;5050925;28;20269;-73
2023/03/03 04:52:36;;;;;;;32.17;25.43;;;;;;;-0.83;100.00;100651.69;5041396;28;20205;-73
2023/03/03 04:55:02;;;;;;;29.07;23.53;;;;;;;-0.78;100.00;100652.72;5044982;28;20210;-73
2023/03/03 04:57:28;;;;;;;31.77;25.57;;;;;;;-0.69;100.00;100649.72;5057389;28;20259;-73
2023/03/03 04:59:53;;;;;;;30.03;24.83;;;;;;;-0.60;100.00;100654.31;5064477;28;20190;-72
2023/03/03 05:02:18;;;;;;;30.27;24.63;;;;;;;-0.52;100.00;100655.50;5045063;28;20472;-73
2023/03/03 05:04:44;;;;;;;30.90;24.10;;;;;;;-0.45;100.00;100654.97;5045037;28;20826;-73
2023/03/03 05:07:09;;;;;;;27.57;24.37;;;;;;;-0.37;100.00;100655.28;5042649;28;20194;-72
2023/03/03 05:09:35;;;;;;;27.60;23.23;;;;;;;-0.31;100.00;100646.22;5038965;28;20276;-72
2023/03/03 05:12:00;;;;;;;27.80;23.43;;;;;;;-0.23;100.00;100656.72;5045116;28;20373;-73
2023/03/03 05:14:26;;;;;;;28.47;24.77;;;;;;;-0.17;100.00;100653.53;5043471;28;20196;-73
2023/03/03 05:16:52;;;;;;;27.70;23.93;;;;;;;-0.12;100.00;100646.97;5044733;28;20791;-73
2023/03/03 05:19:17;;;;;;;29.23;23.87;;;;;;;-0.06;100.00;100652.28;5044827;28;20218;-73
2023/03/03 05:21:42;;;;;;;27.57;22.50;;;;;;;0.01;100.00;100652.56;5041280;28;20187;-74
2023/03/03 05:24:10;;;;;;;28.03;23.63;;;;;;;0.06;100.00;100654.47;5047398;28;20187;-73
2023/03/03 05:26:35;;;;;;;28.63;24.23;;;;;;;0.11;100.00;100655.53;5039801;28;21734;-73
2023/03/03 05:29:00;;;;;;;29.87;23.83;;;;;;;0.14;100.00;100650.56;5044048;28;20207;-73
2023/03/03 05:31:26;;;;;;;29.43;22.87;;;;;;;0.18;100.00;100648.13;5040260;28;20221;-72
2023/03/03 05:33:52;;;;;;;27.07;23.03;;;;;;;0.21;100.00;100646.59;5047543;28;20265;-73
2023/03/03 05:36:17;;;;;;;26.17;23.30;;;;;;;0.27;100.00;100656.13;5040849;28;20615;-73
2023/03/03 05:38:43;;;;;;;27.57;23.10;;;;;;;0.31;100.00;100657.97;5045954;28;20212;-73
2023/03/03 05:41:08;;;;;;;30.13;23.67;;;;;;;0.33;100.00;100658.91;5040650;28;20190;-74
2023/03/03 05:43:34;;;;;;;26.77;23.67;;;;;;;0.35;100.00;100658.97;5039975;28;20671;-73
2023/03/03 05:45:59;;;;;;;28.83;24.43;;;;;;;0.38;100.00;100665.03;5038658;28;20198;-73
2023/03/03 05:48:25;;;;;;;30.03;26.13;;;;;;;0.41;100.00;100669.38;5040247;28;20225;-73
2023/03/03 05:50:51;;;;;;;28.07;23.70;;;;;;;0.44;100.00;100679.69;5046602;28;20276;-73
2023/03/03 05:53:16;;;;;;;30.63;25.17;;;;;;;0.48;100.00;100675.56;5047688;28;20194;-73
2023/03/03 05:55:41;;;;;;;30.07;25.80;;;;;;;0.51;100.00;100678.25;5043203;28;20194;-73
2023/03/03 05:58:07;;;;;;;31.10;25.57;;;;;;;0.50;100.00;100684.16;5039548;28;20221;-73
2023/03/03 06:00:32;;;;;;;32.40;27.13;;;;;;;0.49;100.00;100682.41;5040616;28;20281;-73
2023/03/03 06:02:57;;;;;;;30.20;25.17;;;;;;;0.48;100.00;100688.31;5047027;28;20336;-72
2023/03/03 06:05:23;;;;;;;28.97;25.03;;;;;;;0.46;100.00;100693.34;5049767;28;20716;-73
2023/03/03 06:07:48;;;;;;;29.60;24.73;;;;;;;0.47;100.00;100687.44;5053064;28;20217;-73
2023/03/03 06:10:13;;;;;;;28.33;25.07;;;;;;;0.48;100.00;100691.72;5048424;28;20197;-73
2023/03/03 06:12:40;;;;;;;32.17;26.60;;;;;;;0.45;100.00;100689.91;5050142;28;20182;-73
2023/03/03 06:15:07;;;;;;;34.13;27.30;;;;;;;0.44;100.00;100700.94;5046161;28;20189;-73
2023/03/03 06:17:32;;;;;;;32.67;26.63;;;;;;;0.40;100.00;100703.28;5051518;28;20634;-73
2023/03/03 06:19:57;;;;;;;31.67;26.90;;;;;;;0.38;100.00;100702.38;5048042;28;20200;-73
2023/03/03 06:22:23;;;;;;;28.83;24.90;;;;;;;0.37;100.00;100709.13;5047375;28;20190;-73
2023/03/03 06:24:48;;;;;;;34.33;25.70;;;;;;;0.41;100.00;100725.41;5047650;28;20194;-73
2023/03/03 06:27:13;;;;;;;32.17;24.83;;;;;;;0.44;100.00;100712.78;5043468;28;20203;-73
2023/03/03 06:29:39;;;;;;;29.53;24.07;;;;;;;0.49;100.00;100721.50;5045399;28;20247;-73
2023/03/03 06:32:04;;;;;;;31.63;26.97;;;;;;;0.55;100.00;100724.25;5049283;28;20273;-73
2023/03/03 06:34:29;;;;;;;41.43;31.33;;;;;;;0.59;100.00;100725.25;5042715;28;20647;-73
2023/03/03 06:36:55;;;;;;;36.83;30.23;;;;;;;0.60;100.00;100732.94;5042276;28;20239;-73
2023/03/03 06:39:21;;;;;;;39.10;31.00;;;;;;;0.63;100.00;100731.34;5047460;28;20222;-74
2023/03/03 06:41:46;;;;;;;39.03;32.67;;;;;;;0.59;100.00;100736.31;5051394;28;20288;-73
2023/03/03 06:44:12;;;;;;;41.03;32.77;;;;;;;0.61;100.00;100741.44;5047477;28;20611;-73
2023/03/03 06:46:37;;;;;;;38.13;31.03;;;;;;;0.59;100.00;100740.56;5042582;28;20195;-72
2023/03/03 06:49:03;;;;;;;41.03;31.70;;;;;;;0.60;100.00;100740.59;5043612;28;20216;-73
2023/03/03 06:51:34;;;;;;;40.40;32.03;;;;;;;0.64;100.00;100740.72;5039473;28;20184;-73
2023/03/03 06:54:29;;;;;;;41.03;31.87;;;;;;;0.68;100.00;100746.00;5048044;28;20367;-73
2023/03/03 06:56:59;;;;;;;39.70;31.63;;;;;;;0.73;100.00;100741.06;5040573;28;20232;-73
2023/03/03 06:59:26;;;;;;;42.13;32.23;;;;;;;0.80;100.00;100740.50;5042799;28;20217;-73
2023/03/03 07:01:52;;;;;;;38.77;30.37;;;;;;;0.86;100.00;100743.25;5040891;28;20182;-73
2023/03/03 07:04:33;;;;;;;36.17;29.63;;;;;;;0.94;100.00;100747.78;5048445;28;20196;-73
2023/03/03 07:07:20;;;;;;;34.93;29.93;;;;;;;1.01;100.00;100752.28;5048964;28;20228;-72
2023/03/03 07:09:48;;;;;;;36.90;30.93;;;;;;;1.05;100.00;100759.25;5050605;28;20191;-72
2023/03/03 07:12:18;;;;;;;41.23;33.10;;;;;;;1.09;100.00;100753.47;5044655;28;20269;-73
2023/03/03 07:14:54;;;;;;;41.07;32.77;;;;;;;1.14;100.00;100758.72;5053255;28;20277;-74
2023/03/03 07:17:22;;;;;;;44.17;33.67;;;;;;;1.17;100.00;100761.41;5048040;28;20186;-73
2023/03/03 07:19:47;;;;;;;41.30;32.53;;;;;;;1.23;100.00;100761.59;5050811;28;20182;-72
2023/03/03 07:22:14;;;;;;;45.70;33.43;;;;;;;1.29;100.00;100760.97;5051715;28;20654;-72
2023/03/03 07:24:41;;;;;;;35.07;30.63;;;;;;;1.37;100.00;100757.03;5052740;28;20183;-73
2023/03/03 07:27:30;;;;;;;36.73;31.37;;;;;;;1.50;100.00;100755.78;5047469;28;20290;-73
2023/03/03 07:30:17;;;;;;;33.07;28.70;;;;;;;1.64;100.00;100754.59;5043103;28;20214;-72
2023/03/03 07:32:45;;;;;;;32.73;28.33;;;;;;;1.75;100.00;100766.84;5047102;28;20183;-73
2023/03/03 07:35:34;;;;;;;35.60;29.07;;;;;;;1.86;100.00;100749.38;5038079;28;20264;-73
2023/03/03 07:37:59;;;;;;;34.63;29.53;;;;;;;1.97;100.00;100750.59;5040634;28;20215;-73
2023/03/03 07:40:37;;;;;;;37.20;30.50;;;;;;;2.06;100.00;100765.34;5043583;28;20183;-73
2023/03/03 07:43:17;;;;;;;35.77;31.87;;;;;;;2.19;100.00;100762.38;5041895;28;20174;-75
2023/03/03 07:45:43;;;;;;;36.20;30.53;;;;;;;2.25;100.00;100764.25;5046052;28;20229;-72
2023/03/03 07:48:25;;;;;;;37.20;32.20;;;;;;;2.34;100.00;100767.13;5046529;28;20215;-72
2023/03/03 07:50:51;;;;;;;38.57;31.63;;;;;;;2.40;100.00;100771.56;5044845;28;20191;-74
2023/03/03 07:53:33;;;;;;;36.07;31.97;;;;;;;2.48;100.00;100776.94;5049064;28;20586;-73
2023/03/03 07:55:59;;;;;;;34.60;30.17;;;;;;;2.53;100.00;100770.25;5039621;28;20186;-73
2023/03/03 07:58:39;;;;;;;35.33;31.40;;;;;;;2.63;100.00;100776.53;5037803;28;20213;-72
2023/03/03 08:01:40;;;;;;;38.90;31.90;;;;;;;2.69;100.00;100781.84;5035774;28;20194;-73
2023/03/03 08:04:16;;;;;;;40.70;32.93;;;;;;;2.70;100.00;100786.13;5035264;28;20910;-73
2023/03/03 08:06:48;;;;;;;38.30;32.00;;;;;;;2.73;100.00;100788.75;5035683;28;20253;-73
2023/03/03 08:09:16;;;;;;;37.47;32.37;;;;;;;2.77;100.00;100789.75;5039974;28;20214;-73
2023/03/03 08:12:00;;;;;;;36.43;31.90;;;;;;;2.84;100.00;100795.09;5037484;28;20578;-73
2023/03/03 08:14:32;;;;;;;41.47;32.67;;;;;;;2.85;100.00;100801.94;5037527;28;20225;-73
2023/03/03 08:16:58;;;;;;;37.83;32.33;;;;;;;2.83;100.00;100800.16;5037310;28;20663;-73
2023/03/03 08:19:24;;;;;;;35.63;31.80;;;;;;;2.90;100.00;100791.84;5036742;28;20210;-73
2023/03/03 08:21:50;;;;;;;34.97;30.80;;;;;;;3.02;100.00;100793.94;5052290;28;20646;-73
2023/03/03 08:24:16;;;;;;;40.03;33.30;;;;;;;3.17;100.00;100790.94;5044485;28;20186;-72
2023/03/03 08:26:41;;;;;;;35.63;30.27;;;;;;;3.24;99.73;100787.75;5042401;28;20186;-72
2023/03/03 08:29:06;;;;;;;38.30;33.40;;;;;;;3.25;98.85;100789.50;5058759;28;20866;-73
2023/03/03 08:31:32;;;;;;;35.07;31.20;;;;;;;3.32;99.15;100790.53;5042983;28;20569;-73
2023/03/03 08:33:57;;;;;;;34.90;30.77;;;;;;;3.37;99.01;100788.09;5041823;28;20226;-73
2023/03/03 08:36:23;;;;;;;38.27;33.73;;;;;;;3.37;98.73;100786.41;5053025;28;20209;-72
2023/03/03 08:38:48;;;;;;;37.67;33.57;;;;;;;3.30;98.54;100779.38;5072957;28;20206;-72
2023/03/03 08:41:14;;;;;;;37.30;32.77;;;;;;;3.27;98.10;100790.38;5042879;28;20190;-73
2023/03/03 08:43:39;;;;;;;38.70;34.40;;;;;;;3.19;98.21;100779.91;5047679;28;20274;-73
2023/03/03 08:46:06;;;;;;;40.67;34.33;;;;;;;3.14;98.68;100780.63;5050008;28;20701;-73
2023/03/03 08:48:32;;;;;;;38.57;32.80;;;;;;;3.15;98.83;100780.69;5044220;28;20242;-73
2023/03/03 08:50:58;;;;;;;36.90;33.07;;;;;;;3.21;98.67;100785.09;5046694;28;20806;-74
2023/03/03 08:53:24;;;;;;;38.33;34.17;;;;;;;3.30;98.43;100787.06;5059103;28;20269;-74
2023/03/03 08:55:49;;;;;;;37.57;33.50;;;;;;;3.37;98.58;100782.97;5045049;28;20190;-73
2023/03/03 08:58:18;;;;;;;37.43;33.23;;;;;;;3.39;98.04;100786.47;5059915;28;20263;-73
2023/03/03 09:00:44;;;;;;;35.50;31.67;;;;;;;3.39;97.92;100792.44;5042770;28;20247;-73
2023/03/03 09:03:09;;;;;;;38.73;32.00;;;;;;;3.38;97.71;100790.69;5050186;28;20557;-73
2023/03/03 09:05:37;;;;;;;38.37;33.20;;;;;;;3.38;97.90;100794.94;5049092;28;20195;-73
2023/03/03 09:08:03;;;;;;;35.60;31.67;;;;;;;3.37;97.55;100791.50;5045705;28;20207;-75
2023/03/03 09:10:29;;;;;;;38.43;34.00;;;;;;;3.38;97.17;100800.06;5047945;28;20639;-73
2023/03/03 09:12:57;;;;;;;38.60;32.47;;;;;;;3.41;97.29;100802.69;5049077;28;20191;-73
2023/03/03 09:15:23;;;;;;;38.50;33.17;;;;;;;3.44;96.94;100813.03;5045085;28;20194;-73
2023/03/03 09:17:48;;;;;;;38.57;33.87;;;;;;;3.45;96.53;100809.63;5051902;28;20244;-73
2023/03/03 09:20:21;;;;;;;40.17;34.93;;;;;;;3.43;96.12;100824.06;5052832;28;20278;-73
2023/03/03 09:22:48;;;;;;;39.37;34.97;;;;;;;3.54;96.22;100822.72;5043172;28;20271;-73
2023/03/03 09:25:21;;;;;;;38.63;33.83;;;;;;;3.70;95.99;100815.47;5048537;28;20226;-74
2023/03/03 09:27:46;;;;;;;42.23;35.37;;;;;;;3.71;94.99;100815.50;5049541;28;20298;-73
2023/03/03 09:30:35;;;;;;;38.73;33.10;;;;;;;3.78;94.28;100819.94;5064698;28;20309;-73
2023/03/03 09:33:15;;;;;;;36.87;32.67;;;;;;;3.94;94.16;100822.94;5037601;28;20194;-74
2023/03/03 09:35:41;;;;;;;36.50;32.10;;;;;;;4.10;93.97;100821.66;5048410;28;20611;-73
2023/03/03 09:38:16;;;;;;;39.07;33.87;;;;;;;4.23;93.28;100815.16;5067164;28;20207;-73
2023/03/03 09:41:00;;;;;;;38.33;32.40;;;;;;;4.30;92.91;100822.16;5042931;28;20689;-73
2023/03/03 09:43:36;;;;;;;37.20;31.40;;;;;;;4.43;91.62;100828.47;5037304;28;20219;-73
2023/03/03 09:46:25;;;;;;;38.43;33.23;;;;;;;4.51;90.87;100828.66;5049707;28;20190;-73
2023/03/03 09:49:12;;;;;;;34.87;31.10;;;;;;;4.63;90.19;100826.41;5055205;28;20235;-75
2023/03/03 09:52:07;;;;;;;34.80;31.00;;;;;;;4.60;89.48;100820.34;5045954;28;20203;-74
2023/03/03 09:54:35;;;;;;;36.17;32.30;;;;;;;4.60;89.25;100821.19;5047003;28;20560;-73
2023/03/03 09:57:38;;;;;;;35.03;31.33;;;;;;;4.65;89.61;100816.16;5043735;28;20203;-73
2023/03/03 10:00:16;;;;;;;37.03;32.80;;;;;;;4.70;89.50;100812.03;5037447;28;20270;-73
2023/03/03 10:03:10;;;;;;;35.57;31.73;;;;;;;4.72;89.30;100818.91;5035163;28;20188;-73
2023/03/03 10:06:12;;;;;;;37.53;31.83;;;;;;;4.67;89.26;100819.63;5030487;28;20676;-74
2023/03/03 10:08:59;;;;;;;35.67;30.90;;;;;;;4.67;88.58;100817.06;5036070;28;20589;-73
2023/03/03 10:11:34;;;;;;;32.53;29.07;;;;;;;4.71;88.44;100824.88;5044643;28;20203;-74
2023/03/03 10:14:18;;;;;;;34.60;30.43;;;;;;;4.72;87.78;100818.91;5039139;28;20191;-74
2023/03/03 10:16:57;;;;;;;35.90;31.97;;;;;;;4.73;87.51;100832.63;5045779;28;20191;-73
2023/03/03 10:19:45;;;;;;;32.93;29.47;;;;;;;4.74;87.49;100829.22;5050629;28;20529;-73
2023/03/03 10:22:26;;;;;;;33.97;30.33;;;;;;;4.70;87.36;100832.53;5045268;28;20218;-73
2023/03/03 10:25:00;;;;;;;37.27;30.23;;;;;;;4.68;86.80;100824.81;5042621;28;20191;-74
2023/03/03 10:27:56;;;;;;;36.03;29.70;;;;;;;4.65;85.85;100827.31;5040251;28;20210;-73
2023/03/03 10:30:30;;;;;;;31.87;28.50;;;;;;;4.70;86.06;100824.84;5040448;28;20199;-73
2023/03/03 10:33:15;;;;;;;32.43;28.93;;;;;;;4.70;85.33;100820.56;5043101;28;20227;-74
2023/03/03 10:35:55;;;;;;;30.07;26.80;;;;;;;4.79;85.39;100822.47;5048613;28;20193;-74
2023/03/03 10:38:39;;;;;;;37.93;29.10;;;;;;;4.87;84.50;100825.22;5049470;28;20207;-73
2023/03/03 10:41:24;;;;;;;32.23;28.83;;;;;;;4.86;84.04;100821.81;5044733;28;20189;-73
2023/03/03 10:44:04;;;;;;;31.23;27.87;;;;;;;4.94;84.13;100821.09;5044064;28;20652;-73
2023/03/03 10:46:54;;;;;;;29.97;26.87;;;;;;;4.96;83.29;100816.88;5048635;28;20644;-74
2023/03/03 10:49:31;;;;;;;29.40;26.10;;;;;;;5.10;83.19;100820.63;5044462;28;20210;-73
2023/03/03 10:52:27;;;;;;;31.40;28.10;;;;;;;5.23;82.09;100819.19;5042319;28;20731;-73
2023/03/03 10:55:07;;;;;;;30.40;27.17;;;;;;;5.35;80.79;100808.31;5048348;28;20192;-73
2023/03/03 10:58:15;;;;;;;30.23;26.80;;;;;;;5.57;80.16;100822.47;5041438;28;20367;-73
2023/03/03 11:00:51;;;;;;;30.73;27.40;;;;;;;5.72;79.46;100818.47;5045504;28;20241;-74
2023/03/03 11:03:35;;;;;;;29.50;25.87;;;;;;;5.89;79.06;100817.09;5050041;28;20212;-74
2023/03/03 11:06:12;;;;;;;27.93;25.03;;;;;;;6.08;78.87;100812.31;5046384;28;20712;-73
2023/03/03 11:08:49;;;;;;;30.07;26.27;;;;;;;6.16;78.26;100812.44;5048255;28;20697;-74
2023/03/03 11:11:42;;;;;;;34.03;27.20;;;;;;;6.24;78.16;100809.16;5049785;28;20203;-74
2023/03/03 11:14:27;;;;;;;28.60;25.70;;;;;;;6.33;76.72;100812.75;5049845;28;20217;-73
2023/03/03 11:17:12;;;;;;;29.67;26.87;;;;;;;6.44;76.92;100820.63;5044934;28;20247;-73
2023/03/03 11:20:05;;;;;;;29.30;26.40;;;;;;;6.45;76.75;100809.50;5048682;28;20238;-73
2023/03/03 11:22:46;;;;;;;27.97;25.13;;;;;;;6.49;76.69;100812.16;5039914;28;20186;-73
2023/03/03 11:25:17;;;;;;;28.00;25.17;;;;;;;6.51;75.31;100812.19;5044438;28;20666;-74